Time;durP1;ratioP1;P1;durP2;ratioP2;P2;SDS_P1;SDS_P2;PMS_P1;PMS_P2;Temp;Humidity;BMP_temperature;BMP_pressure;BME280_temperature;BME280_humidity;BME280_pressure;Samples;Min_cycle;Max_cycle;Signal;HPM_P1;HPM_P2
2022/11/20 00:00:50;;;;;;;32.47;12.45;;;;;;;;;;5054455;28;20029;-63
2022/11/20 00:03:17;;;;;;;41.00;12.93;;;;;;;;;;5065726;28;20024;-63
2022/11/20 00:05:42;;;;;;;41.65;14.60;;;;;;;;;;5066159;28;20107;-63
2022/11/20 00:08:08;;;;;;;59.42;14.02;;;;;;;;;;5066015;28;20175;-63
2022/11/20 00:10:36;;;;;;;45.13;14.43;;;;;;;;;;5044468;28;20036;-63
2022/11/20 00:13:01;;;;;;;41.45;14.13;;;;;;;;;;5065077;28;20242;-63
2022/11/20 00:15:26;;;;;;;47.78;14.43;;;;;;;;;;5047660;28;20124;-63
2022/11/20 00:17:52;;;;;;;38.33;12.98;;;;;;;;;;5065110;28;20107;-63
2022/11/20 00:20:17;;;;;;;37.22;13.63;;;;;;;;;;5050559;28;20029;-63
2022/11/20 00:22:42;;;;;;;35.78;13.05;;;;;;;;;;5045288;28;20040;-63
2022/11/20 00:25:08;;;;;;;39.88;13.00;;;;;;;;;;5044795;28;20025;-63
2022/11/20 00:27:34;;;;;;;41.28;13.27;;;;;;;;;;5045573;28;20025;-63
2022/11/20 00:29:59;;;;;;;45.90;13.77;;;;;;;;;;5044956;28;20504;-63
2022/11/20 00:32:24;;;;;;;34.25;13.18;;;;;;;;;;5045659;28;20419;-63
2022/11/20 00:34:50;;;;;;;43.20;13.18;;;;;;;;;;5044985;28;20033;-63
2022/11/20 00:37:15;;;;;;;42.63;13.65;;;;;;;;;;5048323;28;20110;-63
2022/11/20 00:39:40;;;;;;;39.33;13.65;;;;;;;;;;5042446;28;20040;-63
2022/11/20 00:42:06;;;;;;;40.83;14.48;;;;;;;;;;5045309;28;20017;-63
2022/11/20 00:44:31;;;;;;;36.13;12.60;;;;;;;;;;5044625;28;20025;-63
2022/11/20 00:46:56;;;;;;;40.40;14.07;;;;;;;;;;5056574;28;20146;-63
2022/11/20 00:49:22;;;;;;;36.47;12.27;;;;;;;;;;5065214;28;20182;-63
2022/11/20 00:51:47;;;;;;;45.97;14.05;;;;;;;;;;5064205;28;20138;-63
2022/11/20 00:54:12;;;;;;;34.35;12.57;;;;;;;;;;5065508;28;20020;-63
2022/11/20 00:56:38;;;;;;;38.83;12.85;;;;;;;;;;5064752;28;20501;-63
2022/11/20 00:59:03;;;;;;;31.75;11.73;;;;;;;;;;5065292;28;20052;-63
2022/11/20 01:01:29;;;;;;;35.13;11.40;;;;;;;;;;5064869;28;20021;-63
2022/11/20 01:03:57;;;;;;;33.70;13.13;;;;;;;;;;5049183;28;20029;-63
2022/11/20 01:06:34;;;;;;;37.22;12.73;;;;;;;;;;5065132;28;20052;-63
2022/11/20 01:09:03;;;;;;;27.80;11.40;;;;;;;;;;5065032;28;20078;-63
2022/11/20 01:11:31;;;;;;;39.92;13.50;;;;;;;;;;5047157;28;20591;-64
2022/11/20 01:13:59;;;;;;;33.75;10.45;;;;;;;;;;5065210;28;20032;-63
2022/11/20 01:16:30;;;;;;;33.20;11.18;;;;;;;;;;5064679;28;20075;-63
2022/11/20 01:18:58;;;;;;;40.47;12.07;;;;;;;;;;5065312;28;20042;-63
2022/11/20 01:21:24;;;;;;;40.00;11.95;;;;;;;;;;5046723;28;20029;-63
2022/11/20 01:23:50;;;;;;;39.92;12.50;;;;;;;;;;5044721;28;20033;-63
2022/11/20 01:26:19;;;;;;;33.55;12.25;;;;;;;;;;5045140;28;20036;-63
2022/11/20 01:28:44;;;;;;;42.70;12.60;;;;;;;;;;5046249;28;20616;-63
2022/11/20 01:31:18;;;;;;;38.60;13.68;;;;;;;;;;5048257;28;20033;-63
2022/11/20 01:33:45;;;;;;;42.47;12.57;;;;;;;;;;5038991;28;20036;-63
2022/11/20 01:36:11;;;;;;;32.50;11.13;;;;;;;;;;5050713;28;20029;-63
2022/11/20 01:38:36;;;;;;;38.55;10.98;;;;;;;;;;5054165;28;20024;-63
2022/11/20 01:41:02;;;;;;;36.75;12.63;;;;;;;;;;5026174;28;20030;-64
2022/11/20 01:43:28;;;;;;;31.92;12.07;;;;;;;;;;5028677;28;20033;-64
2022/11/20 01:46:04;;;;;;;41.72;11.75;;;;;;;;;;5010499;28;20025;-64
2022/11/20 01:48:36;;;;;;;34.88;12.65;;;;;;;;;;5028735;28;20030;-63
2022/11/20 01:51:03;;;;;;;37.25;13.05;;;;;;;;;;5026816;28;20073;-63
2022/11/20 01:53:34;;;;;;;42.78;13.70;;;;;;;;;;5028618;28;20696;-63
2022/11/20 01:56:02;;;;;;;37.50;13.15;;;;;;;;;;5026496;28;20465;-63
2022/11/20 01:58:32;;;;;;;39.42;12.52;;;;;;;;;;5028129;28;20045;-63
2022/11/20 02:00:57;;;;;;;41.70;13.25;;;;;;;;;;5028014;28;20410;-63
2022/11/20 02:03:23;;;;;;;39.47;13.30;;;;;;;;;;5028246;28;20029;-64
2022/11/20 02:05:52;;;;;;;47.70;15.20;;;;;;;;;;5028345;28;20025;-63
2022/11/20 02:08:17;;;;;;;48.47;13.77;;;;;;;;;;5028335;28;20025;-63
2022/11/20 02:10:43;;;;;;;53.70;15.48;;;;;;;;;;5027372;28;20465;-63
2022/11/20 02:15:53;;;;;;;53.13;14.18;;;;;;;;;;5027752;28;20068;-63
2022/11/20 02:18:20;;;;;;;40.67;12.68;;;;;;;;;;5038329;28;20438;-63
2022/11/20 02:20:49;;;;;;;40.80;12.52;;;;;;;;;;5028624;28;20048;-63
2022/11/20 02:23:36;;;;;;;41.97;11.43;;;;;;;;;;5047661;28;20360;-63
2022/11/20 02:26:05;;;;;;;38.97;12.15;;;;;;;;;;5047448;28;20476;-63
2022/11/20 02:28:31;;;;;;;36.90;13.32;;;;;;;;;;5047356;28;20032;-63
2022/11/20 02:30:56;;;;;;;36.63;13.70;;;;;;;;;;5027428;28;20136;-63
2022/11/20 02:33:22;;;;;;;32.90;11.45;;;;;;;;;;5034464;28;20033;-63
2022/11/20 02:35:47;;;;;;;39.13;13.63;;;;;;;;;;5048266;28;20037;-63
2022/11/20 02:38:14;;;;;;;40.10;12.23;;;;;;;;;;5046406;28;20044;-63
2022/11/20 02:40:39;;;;;;;35.55;11.88;;;;;;;;;;5042251;28;20135;-63
2022/11/20 02:43:05;;;;;;;41.30;12.85;;;;;;;;;;5046972;28;20466;-63
2022/11/20 02:45:31;;;;;;;41.92;12.13;;;;;;;;;;5047400;28;20033;-63
2022/11/20 02:47:56;;;;;;;42.28;13.18;;;;;;;;;;5047019;28;20037;-63
2022/11/20 02:50:21;;;;;;;36.72;11.30;;;;;;;;;;5047569;28;20048;-63
2022/11/20 02:52:47;;;;;;;49.97;14.45;;;;;;;;;;5046886;28;20441;-63
2022/11/20 02:55:12;;;;;;;48.40;14.68;;;;;;;;;;5044983;28;20036;-63
2022/11/20 02:57:37;;;;;;;44.58;11.73;;;;;;;;;;5034966;28;20128;-63
2022/11/20 03:00:04;;;;;;;37.05;12.15;;;;;;;;;;5046701;28;20059;-63
2022/11/20 03:02:30;;;;;;;36.63;11.48;;;;;;;;;;5047662;28;20052;-64
2022/11/20 03:04:56;;;;;;;39.80;13.63;;;;;;;;;;5041615;28;20068;-63
2022/11/20 03:07:21;;;;;;;45.08;12.05;;;;;;;;;;5038019;28;20037;-63
2022/11/20 03:09:46;;;;;;;42.33;13.20;;;;;;;;;;5026765;28;20033;-63
2022/11/20 03:12:12;;;;;;;37.85;11.55;;;;;;;;;;5026827;28;20037;-63
2022/11/20 03:14:37;;;;;;;39.03;12.85;;;;;;;;;;5027121;28;20538;-63
2022/11/20 03:17:02;;;;;;;46.05;11.20;;;;;;;;;;5026907;28;20667;-63
2022/11/20 03:19:28;;;;;;;40.47;11.35;;;;;;;;;;5025993;28;20037;-63
2022/11/20 03:21:53;;;;;;;33.47;10.98;;;;;;;;;;5036038;28;20536;-63
2022/11/20 03:24:18;;;;;;;45.33;12.90;;;;;;;;;;5046444;28;20124;-63
2022/11/20 03:26:43;;;;;;;38.15;12.48;;;;;;;;;;5046185;28;20033;-63
2022/11/20 03:29:09;;;;;;;42.72;13.60;;;;;;;;;;5047112;28;20045;-63
2022/11/20 03:31:42;;;;;;;44.20;13.27;;;;;;;;;;5046827;28;20051;-63
2022/11/20 03:34:09;;;;;;;38.70;11.75;;;;;;;;;;5045988;28;20044;-63
2022/11/20 03:36:37;;;;;;;38.40;11.30;;;;;;;;;;5031047;28;20033;-63
2022/11/20 03:39:02;;;;;;;40.85;12.73;;;;;;;;;;5026986;28;20104;-63
2022/11/20 03:41:30;;;;;;;35.20;12.30;;;;;;;;;;5026911;28;20108;-63
2022/11/20 03:43:59;;;;;;;37.28;12.98;;;;;;;;;;5036937;28;20045;-63
2022/11/20 03:46:25;;;;;;;41.85;14.13;;;;;;;;;;5045396;28;20537;-63
2022/11/20 03:48:50;;;;;;;42.38;12.75;;;;;;;;;;5046215;28;20086;-63
2022/11/20 03:51:30;;;;;;;43.70;12.18;;;;;;;;;;5044534;28;20037;-63
2022/11/20 03:53:58;;;;;;;39.92;12.68;;;;;;;;;;5046050;28;20037;-63
2022/11/20 03:56:26;;;;;;;44.13;13.00;;;;;;;;;;5046277;28;20687;-63
2022/11/20 03:58:52;;;;;;;37.13;12.65;;;;;;;;;;5045999;28;20131;-63
2022/11/20 04:01:23;;;;;;;44.67;12.85;;;;;;;;;;5035500;28;20467;-65
2022/11/20 04:03:49;;;;;;;44.30;13.85;;;;;;;;;;5048767;28;20030;-63
2022/11/20 04:06:16;;;;;;;42.05;12.38;;;;;;;;;;5025704;28;20029;-63
2022/11/20 04:08:41;;;;;;;40.97;12.73;;;;;;;;;;5025984;28;20022;-63
2022/11/20 04:11:22;;;;;;;36.05;11.82;;;;;;;;;;5007299;28;20064;-63
2022/11/20 04:13:52;;;;;;;39.88;10.93;;;;;;;;;;5026938;28;20124;-63
2022/11/20 04:16:18;;;;;;;37.20;10.90;;;;;;;;;;5025557;28;20061;-63
2022/11/20 04:18:44;;;;;;;32.35;11.60;;;;;;;;;;5025767;28;20071;-63
2022/11/20 04:21:10;;;;;;;38.47;11.30;;;;;;;;;;5027582;28;20490;-63
2022/11/20 04:23:35;;;;;;;31.88;11.90;;;;;;;;;;5059595;28;20024;-63
2022/11/20 04:26:09;;;;;;;31.67;9.93;;;;;;;;;;5065802;28;20044;-63
2022/11/20 04:28:35;;;;;;;35.42;11.15;;;;;;;;;;5065428;28;20477;-63
2022/11/20 04:31:13;;;;;;;29.65;9.38;;;;;;;;;;5050742;28;20526;-63
2022/11/20 04:33:39;;;;;;;35.13;11.85;;;;;;;;;;5056618;28;20517;-63
2022/11/20 04:36:11;;;;;;;32.15;11.07;;;;;;;;;;5045223;28;20490;-63
2022/11/20 04:38:37;;;;;;;32.75;10.60;;;;;;;;;;5046495;28;20449;-63
2022/11/20 04:41:06;;;;;;;37.42;11.43;;;;;;;;;;5045696;28;20037;-63
2022/11/20 04:43:32;;;;;;;32.30;10.18;;;;;;;;;;5040056;28;20035;-63
2022/11/20 04:45:59;;;;;;;27.77;10.75;;;;;;;;;;5025266;28;20069;-63
2022/11/20 04:48:26;;;;;;;29.08;11.27;;;;;;;;;;5026004;28;20079;-63
2022/11/20 04:50:51;;;;;;;23.25;8.63;;;;;;;;;;5006405;28;20056;-63
2022/11/20 04:53:17;;;;;;;29.90;10.50;;;;;;;;;;5026081;28;20021;-63
2022/11/20 04:55:43;;;;;;;31.20;9.52;;;;;;;;;;5025304;28;20686;-63
2022/11/20 04:58:08;;;;;;;30.05;9.30;;;;;;;;;;5025193;28;20056;-63
2022/11/20 05:00:34;;;;;;;28.77;9.43;;;;;;;;;;5028882;28;20072;-63
2022/11/20 05:02:59;;;;;;;30.90;9.77;;;;;;;;;;5033468;28;20024;-63
2022/11/20 05:05:25;;;;;;;31.27;10.15;;;;;;;;;;5045070;28;20048;-63
2022/11/20 05:07:50;;;;;;;25.92;10.02;;;;;;;;;;5044072;28;20581;-63
2022/11/20 05:10:15;;;;;;;21.45;8.88;;;;;;;;;;5026320;28;20514;-63
2022/11/20 05:12:41;;;;;;;30.13;9.73;;;;;;;;;;5044428;28;20039;-63
2022/11/20 05:15:07;;;;;;;23.15;8.23;;;;;;;;;;5044215;28;20059;-63
2022/11/20 05:17:32;;;;;;;22.67;9.07;;;;;;;;;;5045211;28;20032;-65
2022/11/20 05:19:57;;;;;;;30.48;10.18;;;;;;;;;;5044380;28;20055;-63
2022/11/20 05:22:23;;;;;;;25.65;8.95;;;;;;;;;;5044761;28;20021;-63
2022/11/20 05:24:48;;;;;;;24.88;9.90;;;;;;;;;;5044805;28;20021;-63
2022/11/20 05:27:14;;;;;;;27.13;8.88;;;;;;;;;;5045121;28;20036;-63
2022/11/20 05:29:39;;;;;;;32.47;10.57;;;;;;;;;;5045126;28;20592;-63
2022/11/20 05:32:07;;;;;;;27.83;8.73;;;;;;;;;;5044838;28;20029;-63
2022/11/20 05:34:32;;;;;;;18.25;6.40;;;;;;;;;;5044665;28;20041;-63
2022/11/20 05:36:58;;;;;;;25.23;9.02;;;;;;;;;;5039841;28;20034;-63
2022/11/20 05:39:23;;;;;;;16.92;6.88;;;;;;;;;;5039882;28;20051;-63
2022/11/20 05:42:29;;;;;;;17.55;6.30;;;;;;;;;;5044170;28;20024;-63
2022/11/20 05:44:33;;;;;;;24.05;7.97;;;;;;;;;;5040035;28;20028;-63
2022/11/20 05:46:59;;;;;;;24.45;6.25;;;;;;;;;;5040050;28;20032;-63
2022/11/20 05:49:24;;;;;;;14.45;7.05;;;;;;;;;;5044667;28;20051;-63
2022/11/20 05:51:49;;;;;;;18.95;7.72;;;;;;;;;;5044161;28;20044;-63
2022/11/20 05:54:15;;;;;;;17.13;7.53;;;;;;;;;;5044823;28;20029;-63
2022/11/20 05:56:40;;;;;;;24.45;9.48;;;;;;;;;;5045238;28;20059;-63
2022/11/20 05:59:06;;;;;;;19.13;7.57;;;;;;;;;;5043830;28;20041;-63
2022/11/20 06:01:31;;;;;;;19.27;8.07;;;;;;;;;;5041944;28;20052;-63
2022/11/20 06:03:56;;;;;;;25.63;9.30;;;;;;;;;;5043951;28;20602;-63
2022/11/20 06:06:22;;;;;;;21.63;8.75;;;;;;;;;;5043567;28;20029;-63
2022/11/20 06:08:48;;;;;;;27.13;9.77;;;;;;;;;;5045002;28;20100;-64
2022/11/20 06:11:14;;;;;;;24.60;9.88;;;;;;;;;;5035874;28;20124;-63
2022/11/20 06:13:41;;;;;;;26.30;8.90;;;;;;;;;;5024115;28;20049;-63
2022/11/20 06:16:06;;;;;;;35.85;12.40;;;;;;;;;;5026707;28;20089;-63
2022/11/20 06:18:32;;;;;;;26.63;10.05;;;;;;;;;;5028400;28;20030;-63
2022/11/20 06:21:06;;;;;;;32.78;9.30;;;;;;;;;;5028348;28;20033;-63
2022/11/20 06:23:32;;;;;;;19.48;8.38;;;;;;;;;;5030559;28;20050;-63
2022/11/20 06:26:04;;;;;;;22.63;8.50;;;;;;;;;;5022426;28;20980;-63
2022/11/20 06:28:30;;;;;;;29.77;9.30;;;;;;;;;;5027833;28;20033;-63
2022/11/20 06:30:55;;;;;;;28.98;9.70;;;;;;;;;;5027317;28;20025;-63
2022/11/20 06:33:21;;;;;;;31.00;9.38;;;;;;;;;;5027566;28;20510;-63
2022/11/20 06:35:46;;;;;;;25.98;8.55;;;;;;;;;;5024103;28;20057;-63
2022/11/20 06:38:11;;;;;;;27.35;9.52;;;;;;;;;;5031734;28;20037;-63
2022/11/20 06:40:40;;;;;;;27.15;8.60;;;;;;;;;;5015795;28;20115;-63
2022/11/20 06:43:05;;;;;;;22.50;9.43;;;;;;;;;;5008062;28;20037;-63
2022/11/20 06:45:30;;;;;;;34.25;7.53;;;;;;;;;;5010763;28;20042;-63
2022/11/20 06:47:58;;;;;;;35.85;10.00;;;;;;;;;;5007777;28;20053;-63
2022/11/20 06:50:23;;;;;;;25.00;9.63;;;;;;;;;;5006135;28;20074;-63
2022/11/20 06:52:48;;;;;;;35.22;10.93;;;;;;;;;;5022362;28;20065;-63
2022/11/20 06:55:14;;;;;;;20.88;7.63;;;;;;;;;;5008138;28;20033;-63
2022/11/20 06:57:39;;;;;;;26.65;9.70;;;;;;;;;;5022572;28;20054;-63
2022/11/20 07:00:05;;;;;;;29.52;10.38;;;;;;;;;;5007699;28;20466;-63
2022/11/20 07:02:30;;;;;;;12.40;5.28;;;;;;;;;;5014043;28;20028;-63
2022/11/20 07:04:56;;;;;;;38.00;8.77;;;;;;;;;;5016135;28;20049;-63
2022/11/20 07:07:21;;;;;;;26.23;9.13;;;;;;;;;;5007677;28;20030;-63
2022/11/20 07:09:46;;;;;;;18.23;6.80;;;;;;;;;;5006778;28;20030;-63
2022/11/20 07:12:11;;;;;;;22.48;8.73;;;;;;;;;;5021903;28;20041;-63
2022/11/20 07:14:37;;;;;;;28.23;9.27;;;;;;;;;;5032130;28;20031;-64
2022/11/20 07:17:02;;;;;;;26.70;9.30;;;;;;;;;;5041629;28;20037;-63
2022/11/20 07:19:28;;;;;;;24.38;8.70;;;;;;;;;;5026488;28;20033;-63
2022/11/20 07:21:53;;;;;;;30.08;10.00;;;;;;;;;;5026349;28;20037;-63
2022/11/20 07:24:18;;;;;;;17.98;8.20;;;;;;;;;;5026643;28;20084;-63
2022/11/20 07:26:48;;;;;;;29.20;8.13;;;;;;;;;;5025812;28;20029;-65
2022/11/20 07:29:13;;;;;;;22.10;8.55;;;;;;;;;;5022979;28;20510;-63
2022/11/20 07:31:39;;;;;;;37.95;8.85;;;;;;;;;;5020978;28;20037;-63
2022/11/20 07:34:04;;;;;;;15.07;6.10;;;;;;;;;;5016727;28;20084;-63
2022/11/20 07:36:30;;;;;;;21.42;8.82;;;;;;;;;;5004841;28;20037;-63
2022/11/20 07:38:55;;;;;;;29.38;9.35;;;;;;;;;;5023424;28;20467;-63
2022/11/20 07:41:20;;;;;;;41.70;9.35;;;;;;;;;;5027613;28;20025;-63
2022/11/20 07:43:45;;;;;;;28.35;9.90;;;;;;;;;;5040796;28;20041;-64
2022/11/20 07:46:11;;;;;;;30.45;9.15;;;;;;;;;;5024058;28;20048;-63
2022/11/20 07:48:37;;;;;;;36.35;8.25;;;;;;;;;;5020994;28;20048;-63
2022/11/20 07:51:03;;;;;;;25.60;8.88;;;;;;;;;;5025970;28;20045;-63
2022/11/20 07:53:28;;;;;;;20.88;7.85;;;;;;;;;;5027325;28;20024;-63
2022/11/20 07:55:53;;;;;;;21.77;8.10;;;;;;;;;;5055396;28;20112;-63
2022/11/20 07:58:20;;;;;;;23.30;9.02;;;;;;;;;;5045035;28;20126;-63
2022/11/20 08:00:45;;;;;;;28.00;8.65;;;;;;;;;;5045601;28;20025;-63
2022/11/20 08:03:10;;;;;;;17.25;6.75;;;;;;;;;;5043167;28;20054;-63
2022/11/20 08:05:37;;;;;;;17.90;7.47;;;;;;;;;;5042712;28;20039;-63
2022/11/20 08:08:02;;;;;;;19.63;7.53;;;;;;;;;;5045938;28;20583;-64
2022/11/20 08:10:28;;;;;;;20.15;7.57;;;;;;;;;;5045665;28;20040;-63
2022/11/20 08:15:38;;;;;;;;;;;;;;;;;;5043222;28;20086;-63
2022/11/20 08:18:06;;;;;;;18.52;7.00;;;;;;;;;;5042531;28;20025;-63
2022/11/20 08:20:32;;;;;;;19.58;7.88;;;;;;;;;;5045149;28;20028;-63
2022/11/20 08:22:59;;;;;;;20.50;6.88;;;;;;;;;;5026334;28;20055;-63
2022/11/20 08:25:25;;;;;;;20.90;7.95;;;;;;;;;;5044400;28;20044;-63
2022/11/20 08:27:51;;;;;;;24.67;7.82;;;;;;;;;;5045469;28;20029;-63
2022/11/20 08:30:16;;;;;;;15.15;6.63;;;;;;;;;;5041994;28;20035;-63
2022/11/20 08:32:41;;;;;;;17.08;6.80;;;;;;;;;;5040981;28;20052;-63
2022/11/20 08:35:07;;;;;;;19.75;6.70;;;;;;;;;;5044564;28;20545;-63
2022/11/20 08:37:32;;;;;;;20.88;6.18;;;;;;;;;;5035084;28;20033;-63
2022/11/20 08:39:58;;;;;;;19.35;7.13;;;;;;;;;;5041968;28;20441;-63
2022/11/20 08:42:23;;;;;;;14.15;6.47;;;;;;;;;;5044365;28;20025;-63
2022/11/20 08:44:48;;;;;;;16.70;4.88;;;;;;;;;;5037995;28;20606;-63
2022/11/20 08:47:14;;;;;;;9.25;4.68;;;;;;;;;;5036254;28;20517;-63
2022/11/20 08:49:39;;;;;;;17.92;6.22;;;;;;;;;;5027810;28;20045;-63
2022/11/20 08:52:05;;;;;;;11.60;4.93;;;;;;;;;;5027243;28;20144;-63
2022/11/20 08:54:30;;;;;;;11.35;3.67;;;;;;;;;;5039801;28;20029;-63
2022/11/20 08:56:56;;;;;;;13.85;5.45;;;;;;;;;;5037280;28;20683;-63
2022/11/20 08:59:21;;;;;;;16.50;5.50;;;;;;;;;;5042100;28;20021;-63
2022/11/20 09:01:47;;;;;;;14.13;5.18;;;;;;;;;;5026752;28;20037;-63
2022/11/20 09:04:14;;;;;;;10.93;5.00;;;;;;;;;;5033545;28;20047;-63
2022/11/20 09:06:39;;;;;;;8.65;4.25;;;;;;;;;;5024464;28;20234;-63
2022/11/20 09:09:05;;;;;;;6.28;3.70;;;;;;;;;;5022352;28;20410;-63
2022/11/20 09:11:31;;;;;;;12.68;4.50;;;;;;;;;;5037092;28;20033;-63
2022/11/20 09:13:56;;;;;;;9.50;3.97;;;;;;;;;;5014741;28;20862;-62
2022/11/20 09:16:22;;;;;;;9.95;4.03;;;;;;;;;;5020081;28;20052;-63
2022/11/20 09:18:49;;;;;;;10.50;4.20;;;;;;;;;;5019199;28;20076;-63
2022/11/20 09:21:15;;;;;;;10.77;4.15;;;;;;;;;;5025024;28;20034;-63
2022/11/20 09:23:40;;;;;;;7.13;3.10;;;;;;;;;;5039522;28;20033;-63
2022/11/20 09:26:10;;;;;;;10.60;3.92;;;;;;;;;;5022582;28;20045;-63
2022/11/20 09:28:35;;;;;;;8.77;4.15;;;;;;;;;;5036794;28;20041;-63
2022/11/20 09:31:05;;;;;;;9.32;4.97;;;;;;;;;;5033915;28;20580;-63
2022/11/20 09:33:31;;;;;;;8.63;4.03;;;;;;;;;;5025010;28;20041;-63
2022/11/20 09:35:56;;;;;;;11.80;4.43;;;;;;;;;;5024786;28;20083;-63
2022/11/20 09:38:21;;;;;;;16.90;5.78;;;;;;;;;;5022250;28;20456;-64
2022/11/20 09:40:56;;;;;;;15.18;5.25;;;;;;;;;;5024343;28;20049;-63
2022/11/20 09:43:49;;;;;;;14.98;5.40;;;;;;;;;;5032879;28;20606;-63
2022/11/20 09:46:33;;;;;;;13.90;4.40;;;;;;;;;;5020091;28;20132;-64
2022/11/20 09:48:58;;;;;;;10.43;4.10;;;;;;;;;;5023744;28;20121;-63
2022/11/20 09:51:39;;;;;;;11.02;3.60;;;;;;;;;;5021202;28;20141;-64
2022/11/20 09:54:10;;;;;;;13.05;4.13;;;;;;;;;;5024952;28;20152;-64
2022/11/20 09:56:42;;;;;;;11.27;3.78;;;;;;;;;;5006922;28;20057;-64
2022/11/20 09:59:19;;;;;;;11.23;3.13;;;;;;;;;;5008117;28;20038;-63
2022/11/20 10:01:45;;;;;;;6.43;2.80;;;;;;;;;;5022229;28;20076;-63
2022/11/20 10:04:19;;;;;;;7.45;2.75;;;;;;;;;;5028273;28;20072;-64
2022/11/20 10:07:07;;;;;;;7.65;2.40;;;;;;;;;;5043314;28;20034;-64
2022/11/20 10:09:39;;;;;;;6.47;2.80;;;;;;;;;;5016974;28;20511;-63
2022/11/20 10:12:26;;;;;;;5.03;2.42;;;;;;;;;;5027080;28;20565;-63
2022/11/20 10:15:06;;;;;;;7.25;2.42;;;;;;;;;;5042429;28;20434;-63
2022/11/20 10:17:50;;;;;;;5.40;2.53;;;;;;;;;;5037937;28;20921;-63
2022/11/20 10:20:37;;;;;;;4.97;1.98;;;;;;;;;;5027987;28;20438;-63
2022/11/20 10:23:18;;;;;;;3.42;2.05;;;;;;;;;;5041846;28;20537;-63
2022/11/20 10:26:01;;;;;;;3.00;1.52;;;;;;;;;;5027332;28;20038;-63
2022/11/20 10:28:41;;;;;;;5.05;1.90;;;;;;;;;;5024768;28;20026;-63
2022/11/20 10:31:47;;;;;;;3.67;2.15;;;;;;;;;;5023118;28;20132;-63
2022/11/20 10:34:26;;;;;;;4.95;1.70;;;;;;;;;;4978725;28;20046;-63
2022/11/20 10:37:14;;;;;;;3.00;1.73;;;;;;;;;;4993116;28;20068;-63
2022/11/20 10:40:22;;;;;;;3.17;1.73;;;;;;;;;;5010360;28;20152;-63
2022/11/20 10:42:54;;;;;;;7.55;2.10;;;;;;;;;;5026353;28;20041;-63
2022/11/20 10:45:26;;;;;;;3.47;1.73;;;;;;;;;;5026853;28;20148;-63
2022/11/20 10:48:09;;;;;;;2.80;1.73;;;;;;;;;;5027079;28;20040;-63
2022/11/20 10:50:39;;;;;;;5.10;1.42;;;;;;;;;;5026731;28;20069;-63
2022/11/20 10:53:19;;;;;;;2.05;1.52;;;;;;;;;;5026884;28;20037;-63
2022/11/20 10:56:04;;;;;;;2.65;1.88;;;;;;;;;;5024692;28;20114;-63
2022/11/20 10:58:42;;;;;;;2.35;1.42;;;;;;;;;;5035018;28;20416;-63
2022/11/20 11:01:22;;;;;;;3.95;1.60;;;;;;;;;;5045189;28;20037;-63
2022/11/20 11:03:50;;;;;;;5.53;1.67;;;;;;;;;;5045418;28;20037;-63
2022/11/20 11:06:27;;;;;;;6.45;2.00;;;;;;;;;;5038746;28;20069;-63
2022/11/20 11:08:56;;;;;;;3.05;1.52;;;;;;;;;;5041050;28;20159;-63
2022/11/20 11:11:28;;;;;;;3.53;1.75;;;;;;;;;;5038205;28;20036;-63
2022/11/20 11:14:05;;;;;;;5.97;2.10;;;;;;;;;;5034256;28;20037;-63
2022/11/20 11:16:30;;;;;;;4.80;1.90;;;;;;;;;;5043238;28;20040;-63
2022/11/20 11:19:14;;;;;;;2.85;1.73;;;;;;;;;;5040663;28;20036;-63
2022/11/20 11:21:46;;;;;;;5.70;1.95;;;;;;;;;;5042415;28;20041;-62
2022/11/20 11:24:22;;;;;;;4.60;2.05;;;;;;;;;;5048482;28;20044;-63
2022/11/20 11:26:55;;;;;;;6.05;1.90;;;;;;;;;;5053596;28;20043;-63
2022/11/20 11:29:20;;;;;;;6.80;2.08;;;;;;;;;;5042452;28;20041;-63
2022/11/20 11:31:45;;;;;;;4.10;1.52;;;;;;;;;;5041718;28;20091;-63
2022/11/20 11:34:13;;;;;;;3.90;1.45;;;;;;;;;;5039510;28;20082;-63
2022/11/20 11:36:39;;;;;;;2.40;1.60;;;;;;;;;;5046005;28;20045;-63
2022/11/20 11:39:10;;;;;;;5.45;1.52;;;;;;;;;;5045565;28;20528;-63
2022/11/20 11:41:36;;;;;;;2.42;1.50;;;;;;;;;;5044875;28;20021;-63
2022/11/20 11:46:58;;;;;;;3.00;1.73;;;;;;;;;;5044420;28;20043;-63
2022/11/20 11:49:23;;;;;;;2.60;1.58;;;;;;;;;;5031579;28;20041;-63
2022/11/20 11:52:01;;;;;;;4.25;1.88;;;;;;;;;;5042268;28;20132;-63
2022/11/20 11:54:38;;;;;;;5.07;1.20;;;;;;;;;;5041785;28;20185;-63
2022/11/20 11:57:10;;;;;;;2.53;1.27;;;;;;;;;;5025956;28;20039;-63
2022/11/20 11:59:49;;;;;;;6.13;2.03;;;;;;;;;;5042497;28;20252;-63
2022/11/20 12:02:49;;;;;;;4.03;1.35;;;;;;;;;;5043056;28;20672;-63
2022/11/20 12:05:19;;;;;;;3.05;1.60;;;;;;;;;;5024605;28;20045;-63
2022/11/20 12:07:54;;;;;;;3.53;1.17;;;;;;;;;;5032387;28;20045;-62
2022/11/20 12:10:36;;;;;;;5.75;1.40;;;;;;;;;;5038934;28;20041;-63
2022/11/20 12:13:09;;;;;;;4.82;1.77;;;;;;;;;;5039929;28;20114;-62
2022/11/20 12:15:34;;;;;;;3.40;1.30;;;;;;;;;;5043024;28;20033;-63
2022/11/20 12:18:00;;;;;;;5.38;1.92;;;;;;;;;;5040551;28;20774;-63
2022/11/20 12:20:32;;;;;;;2.10;1.60;;;;;;;;;;5038932;28;20029;-63
2022/11/20 12:23:21;;;;;;;6.68;1.80;;;;;;;;;;5022538;28;20103;-63
2022/11/20 12:25:53;;;;;;;2.47;1.42;;;;;;;;;;5021255;28;20086;-63
2022/11/20 12:28:26;;;;;;;4.50;1.90;;;;;;;;;;5023354;28;20040;-63
2022/11/20 12:31:03;;;;;;;3.67;1.80;;;;;;;;;;5043712;28;20544;-63
2022/11/20 12:33:49;;;;;;;3.03;2.13;;;;;;;;;;5035835;28;20041;-64
2022/11/20 12:36:27;;;;;;;4.45;2.38;;;;;;;;;;5033624;28;20773;-63
2022/11/20 12:39:21;;;;;;;7.25;2.20;;;;;;;;;;5023894;28;20033;-63
2022/11/20 12:45:26;;;;;;;2.38;1.70;;;;;;;;;;5031172;28;20043;-63
2022/11/20 12:48:12;;;;;;;4.95;2.05;;;;;;;;;;5035753;28;20641;-63
2022/11/20 12:50:52;;;;;;;6.55;2.50;;;;;;;;;;5040505;28;20049;-63
2022/11/20 12:53:33;;;;;;;4.60;2.47;;;;;;;;;;5044200;28;20043;-63
2022/11/20 12:56:25;;;;;;;5.35;2.40;;;;;;;;;;5043342;28;20082;-63
2022/11/20 12:59:09;;;;;;;4.35;2.20;;;;;;;;;;5038931;28;20041;-63
2022/11/20 13:01:55;;;;;;;2.53;1.63;;;;;;;;;;5032569;28;20037;-63
2022/11/20 13:04:21;;;;;;;3.58;2.15;;;;;;;;;;5038207;28;20040;-63
2022/11/20 13:06:47;;;;;;;1.75;1.35;;;;;;;;;;5039388;28;20058;-63
2022/11/20 13:09:17;;;;;;;4.18;1.80;;;;;;;;;;5037774;28;20166;-63
2022/11/20 13:12:05;;;;;;;3.85;1.60;;;;;;;;;;5042971;28;20029;-63
2022/11/20 13:14:30;;;;;;;2.00;1.50;;;;;;;;;;5021514;28;20037;-64
2022/11/20 13:17:08;;;;;;;2.05;1.30;;;;;;;;;;5047642;28;20052;-64
2022/11/20 13:19:34;;;;;;;2.22;1.33;;;;;;;;;;5045619;28;20097;-63
2022/11/20 13:21:59;;;;;;;2.90;1.30;;;;;;;;;;5049714;28;20029;-63
2022/11/20 13:24:30;;;;;;;2.35;1.65;;;;;;;;;;5045183;28;20116;-63
2022/11/20 13:27:19;;;;;;;2.20;1.40;;;;;;;;;;5045882;28;20509;-63
2022/11/20 13:29:46;;;;;;;4.22;2.25;;;;;;;;;;5047357;28;20025;-63
2022/11/20 13:32:15;;;;;;;8.07;2.15;;;;;;;;;;5028412;28;20041;-63
2022/11/20 13:34:52;;;;;;;2.33;1.50;;;;;;;;;;5042702;28;20553;-63
2022/11/20 13:37:35;;;;;;;5.25;1.38;;;;;;;;;;5041512;28;20041;-63
2022/11/20 13:40:13;;;;;;;2.92;1.38;;;;;;;;;;5051860;28;20057;-63
2022/11/20 13:42:54;;;;;;;2.45;1.25;;;;;;;;;;5041906;28;20032;-63
2022/11/20 13:45:32;;;;;;;5.43;2.00;;;;;;;;;;5044982;28;20078;-63
2022/11/20 13:48:02;;;;;;;2.20;1.40;;;;;;;;;;5040938;28;20063;-64
2022/11/20 13:50:46;;;;;;;1.98;1.05;;;;;;;;;;5040457;28;20110;-64
2022/11/20 13:53:14;;;;;;;1.23;1.08;;;;;;;;;;5036911;28;20136;-63
2022/11/20 13:55:47;;;;;;;2.05;1.40;;;;;;;;;;5034366;28;20099;-63
2022/11/20 13:58:35;;;;;;;1.33;1.20;;;;;;;;;;5041851;28;20080;-63
2022/11/20 14:01:19;;;;;;;2.03;1.40;;;;;;;;;;5043825;28;20478;-64
2022/11/20 14:03:47;;;;;;;3.38;1.50;;;;;;;;;;5043397;28;21055;-64
2022/11/20 14:06:24;;;;;;;2.53;1.65;;;;;;;;;;5046918;28;20037;-63
2022/11/20 14:08:50;;;;;;;2.08;1.38;;;;;;;;;;5043628;28;20132;-63
2022/11/20 14:11:30;;;;;;;2.70;1.50;;;;;;;;;;5045570;28;20029;-63
2022/11/20 14:14:26;;;;;;;4.00;2.03;;;;;;;;;;5046614;28;20129;-63
2022/11/20 14:16:53;;;;;;;2.47;1.77;;;;;;;;;;5021409;28;20131;-63
2022/11/20 14:19:21;;;;;;;3.28;2.00;;;;;;;;;;5041276;28;20079;-64
2022/11/20 14:21:53;;;;;;;2.60;2.08;;;;;;;;;;5044112;28;20067;-63
2022/11/20 14:24:23;;;;;;;2.05;1.73;;;;;;;;;;5045123;28;20037;-63
2022/11/20 14:26:50;;;;;;;3.78;2.45;;;;;;;;;;5048205;28;20036;-63
2022/11/20 14:29:17;;;;;;;2.75;1.63;;;;;;;;;;5051280;28;21837;-63
2022/11/20 14:31:45;;;;;;;3.72;2.22;;;;;;;;;;5038316;28;20188;-63
2022/11/20 14:34:16;;;;;;;3.17;2.13;;;;;;;;;;5046509;28;20044;-63
2022/11/20 14:36:43;;;;;;;3.92;1.92;;;;;;;;;;5040004;28;20497;-63
2022/11/20 14:39:12;;;;;;;3.88;2.03;;;;;;;;;;5027400;28;20036;-63
2022/11/20 14:41:37;;;;;;;2.88;2.00;;;;;;;;;;5041602;28;20057;-63
2022/11/20 14:44:04;;;;;;;4.15;2.15;;;;;;;;;;5043761;28;20044;-63
2022/11/20 14:46:31;;;;;;;4.38;2.10;;;;;;;;;;5048735;28;20560;-63
2022/11/20 14:49:01;;;;;;;4.00;2.33;;;;;;;;;;5023997;28;20112;-63
2022/11/20 14:51:38;;;;;;;5.18;2.60;;;;;;;;;;5023681;28;20144;-63
2022/11/20 14:54:18;;;;;;;4.45;2.25;;;;;;;;;;5025715;28;20077;-63
2022/11/20 14:57:01;;;;;;;4.10;2.45;;;;;;;;;;5008298;28;20071;-63